Terminal Aerodrome Forecast
Issued by NWS

Home | Current Version | Previous Version | Text Only | Print | Product List | Glossary Off
Versions: 1 2 3 4 5 6 7 8 9 10 11 12 13 14 15 16 17 18 19 20 21 22 23 24 25 26

000
FTUS43 KMPX 240900 AAA
TAFRWF
TAF AMD
KRWF 240940Z 2410/2506 32018G32KT P6SM OVC016
     FM241100 32021G37KT 6SM -SHSN OVC015
     FM250100 32016G25KT P6SM SCT015=

USA.gov is the U.S. government's official web portal to all federal, state and local government web resources and services.